sensor_id;sensor_type;location;lat;lon;timestamp;temperature;humidity
17495;DHT22;8864;51.970;4.614;2023-02-01T00:01:42;14.00;75.10
17495;DHT22;8864;51.970;4.614;2023-02-01T00:04:08;14.00;75.20
17495;DHT22;8864;51.970;4.614;2023-02-01T00:06:36;14.00;75.10
17495;DHT22;8864;51.970;4.614;2023-02-01T00:09:02;14.00;75.20
17495;DHT22;8864;51.970;4.614;2023-02-01T00:11:31;14.00;75.10
17495;DHT22;8864;51.970;4.614;2023-02-01T00:13:58;14.00;75.10
17495;DHT22;8864;51.970;4.614;2023-02-01T00:16:27;14.00;75.10
17495;DHT22;8864;51.970;4.614;2023-02-01T00:19:02;14.00;75.10
17495;DHT22;8864;51.970;4.614;2023-02-01T00:21:31;14.00;75.10
17495;DHT22;8864;51.970;4.614;2023-02-01T00:23:58;14.00;75.10
17495;DHT22;8864;51.970;4.614;2023-02-01T00:26:30;14.00;75.10
17495;DHT22;8864;51.970;4.614;2023-02-01T00:28:59;14.00;75.10
17495;DHT22;8864;51.970;4.614;2023-02-01T00:31:26;14.00;75.10
17495;DHT22;8864;51.970;4.614;2023-02-01T00:33:54;14.00;75.10
17495;DHT22;8864;51.970;4.614;2023-02-01T00:36:24;14.00;75.10
17495;DHT22;8864;51.970;4.614;2023-02-01T00:38:58;14.00;75.80
17495;DHT22;8864;51.970;4.614;2023-02-01T00:41:27;14.00;75.10
17495;DHT22;8864;51.970;4.614;2023-02-01T00:43:56;14.00;75.00
17495;DHT22;8864;51.970;4.614;2023-02-01T00:46:24;14.00;75.10
17495;DHT22;8864;51.970;4.614;2023-02-01T00:48:51;14.00;75.10
17495;DHT22;8864;51.970;4.614;2023-02-01T00:51:20;14.00;75.10
17495;DHT22;8864;51.970;4.614;2023-02-01T00:53:49;14.00;75.10
17495;DHT22;8864;51.970;4.614;2023-02-01T00:56:17;14.00;75.10
17495;DHT22;8864;51.970;4.614;2023-02-01T00:58:44;14.00;75.10
17495;DHT22;8864;51.970;4.614;2023-02-01T01:01:14;14.00;75.10
17495;DHT22;8864;51.970;4.614;2023-02-01T01:03:43;14.00;75.00
17495;DHT22;8864;51.970;4.614;2023-02-01T01:06:11;14.00;75.10
17495;DHT22;8864;51.970;4.614;2023-02-01T01:08:40;14.00;75.10
17495;DHT22;8864;51.970;4.614;2023-02-01T01:11:10;14.00;75.10
17495;DHT22;8864;51.970;4.614;2023-02-01T01:13:40;14.00;75.20
17495;DHT22;8864;51.970;4.614;2023-02-01T01:16:09;13.90;75.10
17495;DHT22;8864;51.970;4.614;2023-02-01T01:18:37;13.90;75.00
17495;DHT22;8864;51.970;4.614;2023-02-01T01:21:06;13.90;75.10
17495;DHT22;8864;51.970;4.614;2023-02-01T01:23:35;14.00;75.00
17495;DHT22;8864;51.970;4.614;2023-02-01T01:26:06;13.90;75.10
17495;DHT22;8864;51.970;4.614;2023-02-01T01:28:35;13.90;75.10
17495;DHT22;8864;51.970;4.614;2023-02-01T01:31:03;13.90;75.10
17495;DHT22;8864;51.970;4.614;2023-02-01T01:33:30;13.90;75.10
17495;DHT22;8864;51.970;4.614;2023-02-01T01:36:01;13.90;75.20
17495;DHT22;8864;51.970;4.614;2023-02-01T01:38:29;13.90;75.10
17495;DHT22;8864;51.970;4.614;2023-02-01T01:40:56;13.90;75.10
17495;DHT22;8864;51.970;4.614;2023-02-01T01:43:23;13.90;75.10
17495;DHT22;8864;51.970;4.614;2023-02-01T01:45:51;13.90;75.10
17495;DHT22;8864;51.970;4.614;2023-02-01T01:48:23;13.90;75.10
17495;DHT22;8864;51.970;4.614;2023-02-01T01:50:58;13.90;75.20
17495;DHT22;8864;51.970;4.614;2023-02-01T01:53:32;13.90;75.10
17495;DHT22;8864;51.970;4.614;2023-02-01T01:56:01;13.90;75.10
17495;DHT22;8864;51.970;4.614;2023-02-01T01:58:29;13.90;75.10
17495;DHT22;8864;51.970;4.614;2023-02-01T02:00:58;13.90;75.10
17495;DHT22;8864;51.970;4.614;2023-02-01T02:03:28;13.90;75.10
17495;DHT22;8864;51.970;4.614;2023-02-01T02:06:02;13.90;75.10
17495;DHT22;8864;51.970;4.614;2023-02-01T02:08:30;13.90;75.10
17495;DHT22;8864;51.970;4.614;2023-02-01T02:10:57;13.80;75.10
17495;DHT22;8864;51.970;4.614;2023-02-01T02:13:31;13.90;75.20
17495;DHT22;8864;51.970;4.614;2023-02-01T02:16:10;13.90;75.20
17495;DHT22;8864;51.970;4.614;2023-02-01T02:18:49;13.90;75.20
17495;DHT22;8864;51.970;4.614;2023-02-01T02:21:36;13.80;75.10
17495;DHT22;8864;51.970;4.614;2023-02-01T02:24:33;13.90;75.10
17495;DHT22;8864;51.970;4.614;2023-02-01T02:27:21;13.90;75.20
17495;DHT22;8864;51.970;4.614;2023-02-01T02:30:29;13.90;75.30
17495;DHT22;8864;51.970;4.614;2023-02-01T02:33:37;13.80;75.20
17495;DHT22;8864;51.970;4.614;2023-02-01T02:36:10;13.80;75.40
17495;DHT22;8864;51.970;4.614;2023-02-01T02:38:46;13.80;75.30
17495;DHT22;8864;51.970;4.614;2023-02-01T02:41:17;13.80;75.30
17495;DHT22;8864;51.970;4.614;2023-02-01T02:44:01;13.80;75.30
17495;DHT22;8864;51.970;4.614;2023-02-01T02:46:55;13.80;75.40
17495;DHT22;8864;51.970;4.614;2023-02-01T02:49:49;13.80;76.10
17495;DHT22;8864;51.970;4.614;2023-02-01T02:52:44;13.80;75.40
17495;DHT22;8864;51.970;4.614;2023-02-01T02:55:32;13.80;75.40
17495;DHT22;8864;51.970;4.614;2023-02-01T02:58:04;13.80;75.40
17495;DHT22;8864;51.970;4.614;2023-02-01T03:00:50;13.80;75.30
17495;DHT22;8864;51.970;4.614;2023-02-01T03:03:37;13.80;75.30
17495;DHT22;8864;51.970;4.614;2023-02-01T03:06:24;13.70;75.30
17495;DHT22;8864;51.970;4.614;2023-02-01T03:08:54;13.80;75.30
17495;DHT22;8864;51.970;4.614;2023-02-01T03:11:24;13.80;75.40
17495;DHT22;8864;51.970;4.614;2023-02-01T03:14:13;13.80;75.40
17495;DHT22;8864;51.970;4.614;2023-02-01T03:16:43;13.80;75.30
17495;DHT22;8864;51.970;4.614;2023-02-01T03:19:19;13.80;75.30
17495;DHT22;8864;51.970;4.614;2023-02-01T03:21:52;13.80;75.40
17495;DHT22;8864;51.970;4.614;2023-02-01T03:24:23;13.80;75.20
17495;DHT22;8864;51.970;4.614;2023-02-01T03:27:02;13.80;75.30
17495;DHT22;8864;51.970;4.614;2023-02-01T03:29:38;13.80;75.20
17495;DHT22;8864;51.970;4.614;2023-02-01T03:32:06;13.80;75.20
17495;DHT22;8864;51.970;4.614;2023-02-01T03:34:35;13.70;75.10
17495;DHT22;8864;51.970;4.614;2023-02-01T03:37:06;13.80;75.20
17495;DHT22;8864;51.970;4.614;2023-02-01T03:39:38;13.80;75.20
17495;DHT22;8864;51.970;4.614;2023-02-01T03:42:09;13.80;75.20
17495;DHT22;8864;51.970;4.614;2023-02-01T03:44:40;13.70;75.10
17495;DHT22;8864;51.970;4.614;2023-02-01T03:47:13;13.70;75.10
17495;DHT22;8864;51.970;4.614;2023-02-01T03:49:44;13.70;75.10
17495;DHT22;8864;51.970;4.614;2023-02-01T03:52:16;13.70;75.00
17495;DHT22;8864;51.970;4.614;2023-02-01T03:54:45;13.70;75.10
17495;DHT22;8864;51.970;4.614;2023-02-01T03:57:21;13.70;75.10
17495;DHT22;8864;51.970;4.614;2023-02-01T03:59:50;13.70;75.10
17495;DHT22;8864;51.970;4.614;2023-02-01T04:02:17;13.70;75.10
17495;DHT22;8864;51.970;4.614;2023-02-01T04:04:46;13.70;74.90
17495;DHT22;8864;51.970;4.614;2023-02-01T04:07:16;13.70;75.10
17495;DHT22;8864;51.970;4.614;2023-02-01T04:09:44;13.70;75.10
17495;DHT22;8864;51.970;4.614;2023-02-01T04:12:11;13.70;75.00
17495;DHT22;8864;51.970;4.614;2023-02-01T04:14:38;13.70;75.10
17495;DHT22;8864;51.970;4.614;2023-02-01T04:17:06;13.70;75.00
17495;DHT22;8864;51.970;4.614;2023-02-01T04:19:33;13.70;75.00
17495;DHT22;8864;51.970;4.614;2023-02-01T04:22:01;13.70;75.00
17495;DHT22;8864;51.970;4.614;2023-02-01T04:24:30;13.70;75.00
17495;DHT22;8864;51.970;4.614;2023-02-01T04:26:57;13.70;75.00
17495;DHT22;8864;51.970;4.614;2023-02-01T04:29:24;13.70;75.10
17495;DHT22;8864;51.970;4.614;2023-02-01T04:31:51;13.70;75.10
17495;DHT22;8864;51.970;4.614;2023-02-01T04:34:19;13.70;75.00
17495;DHT22;8864;51.970;4.614;2023-02-01T04:36:49;13.70;75.00
17495;DHT22;8864;51.970;4.614;2023-02-01T04:39:16;13.70;75.00
17495;DHT22;8864;51.970;4.614;2023-02-01T04:41:46;13.70;74.90
17495;DHT22;8864;51.970;4.614;2023-02-01T04:44:16;13.70;75.00
17495;DHT22;8864;51.970;4.614;2023-02-01T04:46:45;13.70;75.00
17495;DHT22;8864;51.970;4.614;2023-02-01T04:49:13;13.70;75.00
17495;DHT22;8864;51.970;4.614;2023-02-01T04:51:41;13.70;75.00
17495;DHT22;8864;51.970;4.614;2023-02-01T04:54:11;13.70;75.00
17495;DHT22;8864;51.970;4.614;2023-02-01T04:56:40;13.70;75.00
17495;DHT22;8864;51.970;4.614;2023-02-01T04:59:10;13.70;75.00
17495;DHT22;8864;51.970;4.614;2023-02-01T05:01:37;13.60;74.90
17495;DHT22;8864;51.970;4.614;2023-02-01T05:04:08;13.70;75.00
17495;DHT22;8864;51.970;4.614;2023-02-01T05:06:35;13.60;74.90
17495;DHT22;8864;51.970;4.614;2023-02-01T05:09:03;13.60;74.90
17495;DHT22;8864;51.970;4.614;2023-02-01T05:11:30;13.60;75.00
17495;DHT22;8864;51.970;4.614;2023-02-01T05:14:16;13.60;75.00
17495;DHT22;8864;51.970;4.614;2023-02-01T05:16:43;13.60;74.90
17495;DHT22;8864;51.970;4.614;2023-02-01T05:19:10;13.60;74.80
17495;DHT22;8864;51.970;4.614;2023-02-01T05:21:37;13.60;75.70
17495;DHT22;8864;51.970;4.614;2023-02-01T05:24:04;13.60;74.80
17495;DHT22;8864;51.970;4.614;2023-02-01T05:26:39;13.60;74.90
17495;DHT22;8864;51.970;4.614;2023-02-01T05:29:08;13.60;74.90
17495;DHT22;8864;51.970;4.614;2023-02-01T05:31:37;13.60;74.90
17495;DHT22;8864;51.970;4.614;2023-02-01T05:34:04;13.60;74.90
17495;DHT22;8864;51.970;4.614;2023-02-01T05:36:32;13.60;75.00
17495;DHT22;8864;51.970;4.614;2023-02-01T05:39:00;13.60;74.90
17495;DHT22;8864;51.970;4.614;2023-02-01T05:41:28;13.60;75.00
17495;DHT22;8864;51.970;4.614;2023-02-01T05:43:55;13.60;75.00
17495;DHT22;8864;51.970;4.614;2023-02-01T05:46:24;13.60;75.00
17495;DHT22;8864;51.970;4.614;2023-02-01T05:48:52;13.60;75.00
17495;DHT22;8864;51.970;4.614;2023-02-01T05:51:20;13.60;74.90
17495;DHT22;8864;51.970;4.614;2023-02-01T05:53:47;13.60;75.00
17495;DHT22;8864;51.970;4.614;2023-02-01T05:56:15;13.60;75.00
17495;DHT22;8864;51.970;4.614;2023-02-01T05:58:43;13.60;75.00
17495;DHT22;8864;51.970;4.614;2023-02-01T06:01:13;13.60;75.00
17495;DHT22;8864;51.970;4.614;2023-02-01T06:03:40;13.60;75.00
17495;DHT22;8864;51.970;4.614;2023-02-01T06:06:08;13.60;75.00
17495;DHT22;8864;51.970;4.614;2023-02-01T06:08:35;13.60;75.00
17495;DHT22;8864;51.970;4.614;2023-02-01T06:11:06;13.60;75.00
17495;DHT22;8864;51.970;4.614;2023-02-01T06:13:33;13.60;75.00
17495;DHT22;8864;51.970;4.614;2023-02-01T06:16:01;13.60;75.00
17495;DHT22;8864;51.970;4.614;2023-02-01T06:18:28;13.60;75.80
17495;DHT22;8864;51.970;4.614;2023-02-01T06:20:57;13.60;75.10
17495;DHT22;8864;51.970;4.614;2023-02-01T06:23:27;13.60;75.10
17495;DHT22;8864;51.970;4.614;2023-02-01T06:25:58;13.60;75.20
17495;DHT22;8864;51.970;4.614;2023-02-01T06:28:26;13.60;75.30
17495;DHT22;8864;51.970;4.614;2023-02-01T06:30:54;13.60;75.20
17495;DHT22;8864;51.970;4.614;2023-02-01T06:33:21;13.60;75.30
17495;DHT22;8864;51.970;4.614;2023-02-01T06:35:48;13.60;75.20
17495;DHT22;8864;51.970;4.614;2023-02-01T06:38:15;13.60;75.20
17495;DHT22;8864;51.970;4.614;2023-02-01T06:40:52;13.60;75.20
17495;DHT22;8864;51.970;4.614;2023-02-01T06:43:22;13.60;75.30
17495;DHT22;8864;51.970;4.614;2023-02-01T06:45:50;13.60;75.30
17495;DHT22;8864;51.970;4.614;2023-02-01T06:48:17;13.60;75.30
17495;DHT22;8864;51.970;4.614;2023-02-01T06:50:45;13.60;75.40
17495;DHT22;8864;51.970;4.614;2023-02-01T06:53:12;13.60;75.30
17495;DHT22;8864;51.970;4.614;2023-02-01T06:55:39;13.60;75.20
17495;DHT22;8864;51.970;4.614;2023-02-01T06:58:08;13.60;75.30
17495;DHT22;8864;51.970;4.614;2023-02-01T07:00:35;13.60;75.20
17495;DHT22;8864;51.970;4.614;2023-02-01T07:03:02;13.60;75.10
17495;DHT22;8864;51.970;4.614;2023-02-01T07:05:29;13.60;75.10
17495;DHT22;8864;51.970;4.614;2023-02-01T07:08:05;13.60;75.10
17495;DHT22;8864;51.970;4.614;2023-02-01T07:10:36;13.60;75.00
17495;DHT22;8864;51.970;4.614;2023-02-01T07:13:03;13.60;75.00
17495;DHT22;8864;51.970;4.614;2023-02-01T07:15:36;13.50;74.90
17495;DHT22;8864;51.970;4.614;2023-02-01T07:18:05;13.60;75.00
17495;DHT22;8864;51.970;4.614;2023-02-01T07:20:32;13.60;74.90
17495;DHT22;8864;51.970;4.614;2023-02-01T07:22:59;13.60;74.80
17495;DHT22;8864;51.970;4.614;2023-02-01T07:25:26;13.50;74.70
17495;DHT22;8864;51.970;4.614;2023-02-01T07:27:57;13.60;74.80
17495;DHT22;8864;51.970;4.614;2023-02-01T07:30:24;13.50;74.70
17495;DHT22;8864;51.970;4.614;2023-02-01T07:32:55;13.50;74.70
17495;DHT22;8864;51.970;4.614;2023-02-01T07:35:27;13.50;74.60
17495;DHT22;8864;51.970;4.614;2023-02-01T07:37:54;13.60;74.70
17495;DHT22;8864;51.970;4.614;2023-02-01T07:40:21;13.50;74.60
17495;DHT22;8864;51.970;4.614;2023-02-01T07:42:54;13.50;74.60
17495;DHT22;8864;51.970;4.614;2023-02-01T07:45:23;13.50;74.50
17495;DHT22;8864;51.970;4.614;2023-02-01T07:47:51;13.50;74.50
17495;DHT22;8864;51.970;4.614;2023-02-01T07:50:20;13.50;74.50
17495;DHT22;8864;51.970;4.614;2023-02-01T07:52:47;13.50;74.50
17495;DHT22;8864;51.970;4.614;2023-02-01T07:55:15;13.50;74.50
17495;DHT22;8864;51.970;4.614;2023-02-01T07:57:42;13.60;74.90
17495;DHT22;8864;51.970;4.614;2023-02-01T08:00:12;13.60;74.80
17495;DHT22;8864;51.970;4.614;2023-02-01T08:02:57;13.60;74.70
17495;DHT22;8864;51.970;4.614;2023-02-01T08:05:26;13.60;74.60
17495;DHT22;8864;51.970;4.614;2023-02-01T08:07:54;13.60;74.50
17495;DHT22;8864;51.970;4.614;2023-02-01T08:10:21;13.60;74.50
17495;DHT22;8864;51.970;4.614;2023-02-01T08:12:50;13.60;74.40
17495;DHT22;8864;51.970;4.614;2023-02-01T08:15:17;13.60;75.10
17495;DHT22;8864;51.970;4.614;2023-02-01T08:17:50;13.60;74.30
17495;DHT22;8864;51.970;4.614;2023-02-01T08:20:18;13.60;74.20
17495;DHT22;8864;51.970;4.614;2023-02-01T08:22:48;13.60;74.50
17495;DHT22;8864;51.970;4.614;2023-02-01T08:25:17;13.60;74.30
17495;DHT22;8864;51.970;4.614;2023-02-01T08:27:45;13.60;74.50
17495;DHT22;8864;51.970;4.614;2023-02-01T08:30:13;13.70;74.50
17495;DHT22;8864;51.970;4.614;2023-02-01T08:32:40;13.60;74.50
17495;DHT22;8864;51.970;4.614;2023-02-01T08:35:08;13.60;74.60
17495;DHT22;8864;51.970;4.614;2023-02-01T08:37:37;13.70;74.50
17495;DHT22;8864;51.970;4.614;2023-02-01T08:40:07;13.70;74.30
17495;DHT22;8864;51.970;4.614;2023-02-01T08:42:35;13.70;74.30
17495;DHT22;8864;51.970;4.614;2023-02-01T08:45:22;13.60;74.20
17495;DHT22;8864;51.970;4.614;2023-02-01T08:47:50;13.60;74.00
17495;DHT22;8864;51.970;4.614;2023-02-01T08:50:20;13.70;74.00
17495;DHT22;8864;51.970;4.614;2023-02-01T08:52:48;13.60;73.90
17495;DHT22;8864;51.970;4.614;2023-02-01T08:55:17;13.70;74.00
17495;DHT22;8864;51.970;4.614;2023-02-01T08:57:45;13.70;73.80
17495;DHT22;8864;51.970;4.614;2023-02-01T09:00:14;13.70;73.80
17495;DHT22;8864;51.970;4.614;2023-02-01T09:02:43;13.70;73.90
17495;DHT22;8864;51.970;4.614;2023-02-01T09:05:11;13.70;73.60
17495;DHT22;8864;51.970;4.614;2023-02-01T09:07:40;13.70;74.50
17495;DHT22;8864;51.970;4.614;2023-02-01T09:10:09;13.70;73.90
17495;DHT22;8864;51.970;4.614;2023-02-01T09:12:39;13.70;73.80
17495;DHT22;8864;51.970;4.614;2023-02-01T09:15:07;13.70;75.00
17495;DHT22;8864;51.970;4.614;2023-02-01T09:17:34;13.80;75.50
17495;DHT22;8864;51.970;4.614;2023-02-01T09:20:03;13.80;75.70
17495;DHT22;8864;51.970;4.614;2023-02-01T09:22:30;13.80;75.50
17495;DHT22;8864;51.970;4.614;2023-02-01T09:25:00;13.80;75.10
17495;DHT22;8864;51.970;4.614;2023-02-01T09:27:27;13.80;74.80
17495;DHT22;8864;51.970;4.614;2023-02-01T09:29:57;13.80;74.80
17495;DHT22;8864;51.970;4.614;2023-02-01T09:32:24;13.80;74.70
17495;DHT22;8864;51.970;4.614;2023-02-01T09:34:52;13.80;74.60
17495;DHT22;8864;51.970;4.614;2023-02-01T09:37:21;13.80;74.60
17495;DHT22;8864;51.970;4.614;2023-02-01T09:39:48;13.80;74.60
17495;DHT22;8864;51.970;4.614;2023-02-01T09:42:25;13.80;74.50
17495;DHT22;8864;51.970;4.614;2023-02-01T09:45:24;13.80;74.50
17495;DHT22;8864;51.970;4.614;2023-02-01T09:47:56;13.90;75.10
17495;DHT22;8864;51.970;4.614;2023-02-01T09:50:30;13.90;74.70
17495;DHT22;8864;51.970;4.614;2023-02-01T09:53:05;13.80;74.20
17495;DHT22;8864;51.970;4.614;2023-02-01T09:55:39;13.80;73.70
17495;DHT22;8864;51.970;4.614;2023-02-01T09:58:14;13.80;73.30
17495;DHT22;8864;51.970;4.614;2023-02-01T10:00:50;13.80;73.10
17495;DHT22;8864;51.970;4.614;2023-02-01T10:03:18;13.80;72.80
17495;DHT22;8864;51.970;4.614;2023-02-01T10:06:00;13.80;72.70
17495;DHT22;8864;51.970;4.614;2023-02-01T10:08:34;13.70;72.60
17495;DHT22;8864;51.970;4.614;2023-02-01T10:11:13;13.70;72.50
17495;DHT22;8864;51.970;4.614;2023-02-01T10:13:53;13.70;72.50
17495;DHT22;8864;51.970;4.614;2023-02-01T10:16:34;13.70;72.10
17495;DHT22;8864;51.970;4.614;2023-02-01T10:19:27;13.70;71.90
17495;DHT22;8864;51.970;4.614;2023-02-01T10:22:04;13.70;71.80
17495;DHT22;8864;51.970;4.614;2023-02-01T10:24:41;13.70;71.70
17495;DHT22;8864;51.970;4.614;2023-02-01T10:27:14;13.70;71.70
17495;DHT22;8864;51.970;4.614;2023-02-01T10:29:51;13.70;71.60
17495;DHT22;8864;51.970;4.614;2023-02-01T10:32:24;13.70;72.30
17495;DHT22;8864;51.970;4.614;2023-02-01T10:35:00;13.80;74.00
17495;DHT22;8864;51.970;4.614;2023-02-01T10:37:29;13.80;74.00
17495;DHT22;8864;51.970;4.614;2023-02-01T10:40:00;13.90;73.60
17495;DHT22;8864;51.970;4.614;2023-02-01T10:42:31;13.90;73.50
17495;DHT22;8864;51.970;4.614;2023-02-01T10:45:02;13.90;73.20
17495;DHT22;8864;51.970;4.614;2023-02-01T10:47:31;14.00;73.20
17495;DHT22;8864;51.970;4.614;2023-02-01T10:50:08;14.00;73.00
17495;DHT22;8864;51.970;4.614;2023-02-01T10:52:46;14.10;73.20
17495;DHT22;8864;51.970;4.614;2023-02-01T10:55:34;14.10;73.00
17495;DHT22;8864;51.970;4.614;2023-02-01T10:58:06;14.20;73.30
17495;DHT22;8864;51.970;4.614;2023-02-01T11:00:42;14.20;72.80
17495;DHT22;8864;51.970;4.614;2023-02-01T11:03:39;14.20;73.00
17495;DHT22;8864;51.970;4.614;2023-02-01T11:06:19;14.20;72.60
17495;DHT22;8864;51.970;4.614;2023-02-01T11:08:52;14.20;72.50
17495;DHT22;8864;51.970;4.614;2023-02-01T11:11:22;14.20;73.00
17495;DHT22;8864;51.970;4.614;2023-02-01T11:13:56;14.20;72.70
17495;DHT22;8864;51.970;4.614;2023-02-01T11:16:31;14.20;72.50
17495;DHT22;8864;51.970;4.614;2023-02-01T11:19:02;14.20;72.30
17495;DHT22;8864;51.970;4.614;2023-02-01T11:21:29;14.10;72.10
17495;DHT22;8864;51.970;4.614;2023-02-01T11:24:01;14.10;72.00
17495;DHT22;8864;51.970;4.614;2023-02-01T11:26:29;14.10;71.90
17495;DHT22;8864;51.970;4.614;2023-02-01T11:29:01;14.00;71.70
17495;DHT22;8864;51.970;4.614;2023-02-01T11:31:30;14.00;71.60
17495;DHT22;8864;51.970;4.614;2023-02-01T11:34:05;14.10;71.60
17495;DHT22;8864;51.970;4.614;2023-02-01T11:36:36;14.10;71.40
17495;DHT22;8864;51.970;4.614;2023-02-01T11:39:23;14.00;71.30
17495;DHT22;8864;51.970;4.614;2023-02-01T11:41:58;14.00;71.30
17495;DHT22;8864;51.970;4.614;2023-02-01T11:44:31;14.00;71.10
17495;DHT22;8864;51.970;4.614;2023-02-01T11:47:20;14.00;71.10
17495;DHT22;8864;51.970;4.614;2023-02-01T11:49:48;14.00;71.00
17495;DHT22;8864;51.970;4.614;2023-02-01T11:52:37;14.00;70.90
17495;DHT22;8864;51.970;4.614;2023-02-01T11:55:23;14.00;70.80
17495;DHT22;8864;51.970;4.614;2023-02-01T11:58:04;14.00;70.90
17495;DHT22;8864;51.970;4.614;2023-02-01T12:00:52;14.00;71.00
17495;DHT22;8864;51.970;4.614;2023-02-01T12:06:50;14.00;71.00
17495;DHT22;8864;51.970;4.614;2023-02-01T12:09:46;14.00;71.00
17495;DHT22;8864;51.970;4.614;2023-02-01T12:12:24;14.00;71.00
17495;DHT22;8864;51.970;4.614;2023-02-01T12:15:04;13.90;71.30
17495;DHT22;8864;51.970;4.614;2023-02-01T12:17:58;13.90;71.30
17495;DHT22;8864;51.970;4.614;2023-02-01T12:20:38;13.90;71.70
17495;DHT22;8864;51.970;4.614;2023-02-01T12:23:19;13.90;71.80
17495;DHT22;8864;51.970;4.614;2023-02-01T12:26:02;13.90;71.90
17495;DHT22;8864;51.970;4.614;2023-02-01T12:28:43;13.90;71.90
17495;DHT22;8864;51.970;4.614;2023-02-01T12:31:28;13.90;72.00
17495;DHT22;8864;51.970;4.614;2023-02-01T12:34:21;13.90;72.00
17495;DHT22;8864;51.970;4.614;2023-02-01T12:36:57;14.00;72.00
17495;DHT22;8864;51.970;4.614;2023-02-01T12:39:32;14.00;72.00
17495;DHT22;8864;51.970;4.614;2023-02-01T12:42:08;14.00;72.00
17495;DHT22;8864;51.970;4.614;2023-02-01T12:44:43;14.00;72.00
17495;DHT22;8864;51.970;4.614;2023-02-01T12:47:18;14.00;72.10
17495;DHT22;8864;51.970;4.614;2023-02-01T12:49:54;14.00;72.10
17495;DHT22;8864;51.970;4.614;2023-02-01T12:52:29;14.00;72.20
17495;DHT22;8864;51.970;4.614;2023-02-01T12:55:06;14.00;72.20
17495;DHT22;8864;51.970;4.614;2023-02-01T12:57:37;14.00;72.10
17495;DHT22;8864;51.970;4.614;2023-02-01T13:00:20;14.00;72.20
17495;DHT22;8864;51.970;4.614;2023-02-01T13:02:54;14.00;72.10
17495;DHT22;8864;51.970;4.614;2023-02-01T13:05:27;14.00;72.10
17495;DHT22;8864;51.970;4.614;2023-02-01T13:08:00;14.00;72.00
17495;DHT22;8864;51.970;4.614;2023-02-01T13:10:34;14.10;72.20
17495;DHT22;8864;51.970;4.614;2023-02-01T13:13:09;14.10;72.20
17495;DHT22;8864;51.970;4.614;2023-02-01T13:15:43;14.00;72.30
17495;DHT22;8864;51.970;4.614;2023-02-01T13:18:15;14.00;72.40
17495;DHT22;8864;51.970;4.614;2023-02-01T13:20:49;14.00;72.30
17495;DHT22;8864;51.970;4.614;2023-02-01T13:23:25;14.00;72.30
17495;DHT22;8864;51.970;4.614;2023-02-01T13:25:55;14.00;72.40
17495;DHT22;8864;51.970;4.614;2023-02-01T13:28:26;14.00;72.30
17495;DHT22;8864;51.970;4.614;2023-02-01T13:31:14;14.00;72.50
17495;DHT22;8864;51.970;4.614;2023-02-01T13:33:56;14.00;72.50
17495;DHT22;8864;51.970;4.614;2023-02-01T13:36:48;14.00;72.60
17495;DHT22;8864;51.970;4.614;2023-02-01T13:42:23;14.00;72.60
17495;DHT22;8864;51.970;4.614;2023-02-01T13:45:03;14.00;72.70
17495;DHT22;8864;51.970;4.614;2023-02-01T13:47:32;14.00;72.80
17495;DHT22;8864;51.970;4.614;2023-02-01T13:50:04;14.00;73.00
17495;DHT22;8864;51.970;4.614;2023-02-01T13:52:41;14.00;73.00
17495;DHT22;8864;51.970;4.614;2023-02-01T13:55:31;14.00;73.20
17495;DHT22;8864;51.970;4.614;2023-02-01T13:58:17;14.00;73.10
17495;DHT22;8864;51.970;4.614;2023-02-01T14:00:50;14.00;73.20
17495;DHT22;8864;51.970;4.614;2023-02-01T14:03:20;14.00;73.10
17495;DHT22;8864;51.970;4.614;2023-02-01T14:06:14;13.90;73.10
17495;DHT22;8864;51.970;4.614;2023-02-01T14:08:46;14.00;73.20
17495;DHT22;8864;51.970;4.614;2023-02-01T14:11:38;14.00;73.40
17495;DHT22;8864;51.970;4.614;2023-02-01T14:17:37;14.00;73.30
17495;DHT22;8864;51.970;4.614;2023-02-01T14:23:29;14.00;73.40
17495;DHT22;8864;51.970;4.614;2023-02-01T14:26:12;14.00;73.40
17495;DHT22;8864;51.970;4.614;2023-02-01T14:28:44;14.00;73.50
17495;DHT22;8864;51.970;4.614;2023-02-01T14:31:43;13.90;73.50
17495;DHT22;8864;51.970;4.614;2023-02-01T14:34:30;13.90;73.70
17495;DHT22;8864;51.970;4.614;2023-02-01T14:36:59;14.00;74.80
17495;DHT22;8864;51.970;4.614;2023-02-01T14:39:31;14.10;75.00
17495;DHT22;8864;51.970;4.614;2023-02-01T14:42:04;14.10;74.60
17495;DHT22;8864;51.970;4.614;2023-02-01T14:44:43;14.10;74.50
17495;DHT22;8864;51.970;4.614;2023-02-01T14:47:32;14.10;74.20
17495;DHT22;8864;51.970;4.614;2023-02-01T14:50:23;14.10;74.00
17495;DHT22;8864;51.970;4.614;2023-02-01T14:53:14;14.10;74.90
17495;DHT22;8864;51.970;4.614;2023-02-01T14:55:47;14.10;74.50
17495;DHT22;8864;51.970;4.614;2023-02-01T14:58:29;14.10;74.20
17495;DHT22;8864;51.970;4.614;2023-02-01T15:01:00;14.10;74.20
17495;DHT22;8864;51.970;4.614;2023-02-01T15:03:43;14.00;74.20
17495;DHT22;8864;51.970;4.614;2023-02-01T15:06:25;14.00;74.10
17495;DHT22;8864;51.970;4.614;2023-02-01T15:08:57;14.00;74.20
17495;DHT22;8864;51.970;4.614;2023-02-01T15:11:25;14.00;74.80
17495;DHT22;8864;51.970;4.614;2023-02-01T15:13:53;14.00;74.20
17495;DHT22;8864;51.970;4.614;2023-02-01T15:16:27;14.00;74.20
17495;DHT22;8864;51.970;4.614;2023-02-01T15:19:11;14.00;74.20
17495;DHT22;8864;51.970;4.614;2023-02-01T15:21:46;14.00;74.20
17495;DHT22;8864;51.970;4.614;2023-02-01T15:24:20;14.00;74.20
17495;DHT22;8864;51.970;4.614;2023-02-01T15:26:47;14.00;74.20
17495;DHT22;8864;51.970;4.614;2023-02-01T15:29:17;14.00;74.30
17495;DHT22;8864;51.970;4.614;2023-02-01T15:31:46;14.00;74.20
17495;DHT22;8864;51.970;4.614;2023-02-01T15:34:13;14.00;74.20
17495;DHT22;8864;51.970;4.614;2023-02-01T15:36:41;14.00;74.30
17495;DHT22;8864;51.970;4.614;2023-02-01T15:39:29;13.90;74.20
17495;DHT22;8864;51.970;4.614;2023-02-01T15:41:59;13.90;74.20
17495;DHT22;8864;51.970;4.614;2023-02-01T15:44:33;14.00;74.30
17495;DHT22;8864;51.970;4.614;2023-02-01T15:47:07;13.90;74.30
17495;DHT22;8864;51.970;4.614;2023-02-01T15:49:38;13.90;74.30
17495;DHT22;8864;51.970;4.614;2023-02-01T15:52:18;13.90;74.80
17495;DHT22;8864;51.970;4.614;2023-02-01T15:54:51;13.90;74.60
17495;DHT22;8864;51.970;4.614;2023-02-01T15:57:21;13.90;74.50
17495;DHT22;8864;51.970;4.614;2023-02-01T15:59:56;13.90;74.40
17495;DHT22;8864;51.970;4.614;2023-02-01T16:02:28;13.90;74.40
17495;DHT22;8864;51.970;4.614;2023-02-01T16:04:56;13.90;74.40
17495;DHT22;8864;51.970;4.614;2023-02-01T16:07:26;13.90;74.40
17495;DHT22;8864;51.970;4.614;2023-02-01T16:09:57;13.90;74.40
17495;DHT22;8864;51.970;4.614;2023-02-01T16:12:30;13.90;74.50
17495;DHT22;8864;51.970;4.614;2023-02-01T16:14:58;13.90;74.40
17495;DHT22;8864;51.970;4.614;2023-02-01T16:17:27;13.90;74.40
17495;DHT22;8864;51.970;4.614;2023-02-01T16:19:54;13.90;74.50
17495;DHT22;8864;51.970;4.614;2023-02-01T16:22:22;13.90;74.50
17495;DHT22;8864;51.970;4.614;2023-02-01T16:24:51;13.90;74.50
17495;DHT22;8864;51.970;4.614;2023-02-01T16:27:20;13.90;74.50
17495;DHT22;8864;51.970;4.614;2023-02-01T16:29:47;13.90;74.50
17495;DHT22;8864;51.970;4.614;2023-02-01T16:32:18;13.90;74.50
17495;DHT22;8864;51.970;4.614;2023-02-01T16:34:46;13.90;74.50